createdAt,value
2023-04-06T00:06:10.180Z,3207.8127090301005
2023-04-06T00:17:46.224Z,3408.8428093645484
2023-04-06T00:24:07.370Z,3397.9966555183946
2023-04-06T00:30:27.941Z,3375.943143812709
2023-04-06T00:40:56.242Z,3407.2274247491637
2023-04-06T00:47:16.848Z,3654.8327759197323
2023-04-06T00:53:36.905Z,3627.321070234114
2023-04-06T00:59:58.129Z,3550.7658862876256
2023-04-06T01:06:19.535Z,3469.133779264214
2023-04-06T01:22:11.661Z,3364.4347826086955
2023-04-06T01:28:31.289Z,3320.096989966555
2023-04-06T01:34:52.001Z,3209.5886287625417
2023-04-06T01:41:11.123Z,3196.705685618729
2023-04-06T01:47:30.920Z,3293.598662207358
2023-04-06T01:53:50.027Z,3281.8595317725753
2023-04-06T02:00:10.718Z,3283.1939799331103
2023-04-06T02:06:30.797Z,3183.361204013378
2023-04-06T02:12:50.339Z,3131.3377926421404
2023-04-06T02:19:11.166Z,2996.5785953177256
2023-04-06T02:25:30.574Z,2922.200668896321
2023-04-06T02:31:50.121Z,3015.9933110367892
2023-04-06T02:42:43.722Z,3060.170568561873
2023-04-06T02:49:05.110Z,3086.7090301003345
2023-04-06T02:55:27.388Z,3135.6822742474915
2023-04-06T03:05:06.194Z,3153.7324414715717
2023-04-06T03:18:00.111Z,3213.401337792642
2023-04-06T03:24:21.216Z,3143.769230769231
2023-04-06T03:32:10.968Z,3120.0
2023-04-06T03:40:36.488Z,3240.632107023411
2023-04-06T03:46:56.707Z,3394.866220735786
2023-04-06T03:53:17.731Z,3453.3311036789296
2023-04-06T03:59:37.659Z,3326.418060200669
2023-04-06T04:05:56.720Z,3403.57525083612
2023-04-06T04:14:33.386Z,3431.799331103679
2023-04-06T04:20:52.725Z,3458.5484949832776
2023-04-06T04:27:12.223Z,3549.933110367893
2023-04-06T04:33:32.931Z,3661.936454849498
2023-04-06T04:52:49.282Z,3849.6120401337794
2023-04-06T05:01:12.069Z,3758.438127090301
2023-04-06T05:18:08.116Z,3854.5183946488296
2023-04-06T05:27:32.936Z,3956.9799331103677
2023-04-06T05:33:54.717Z,3894.0501672240803
2023-04-06T05:40:20.954Z,3823.2441471571906
2023-04-06T05:46:43.836Z,3801.200668896321
2023-04-06T05:55:10.770Z,3776.016722408027
2023-04-06T06:07:53.922Z,3622.57525083612
2023-04-06T06:14:53.372Z,3568.936454849498
2023-04-06T06:21:15.241Z,3383.367892976589
2023-04-06T06:27:37.349Z,3406.4448160535117
2023-04-06T06:33:59.089Z,3390.551839464883
2023-04-06T06:44:14.625Z,3350.367892976589
2023-04-06T06:50:37.460Z,3234.923076923077
2023-04-06T06:56:58.835Z,3270.943143812709
2023-04-06T07:08:11.420Z,3257.207357859532
2023-04-06T07:14:31.931Z,3276.6923076923076
2023-04-06T07:24:44.127Z,3197.8896321070233
2023-04-06T07:31:05.242Z,3326.7190635451507
2023-04-06T07:38:37.328Z,3268.876254180602
2023-04-06T07:44:58.255Z,3227.488294314381
2023-04-06T08:05:33.370Z,2982.1404682274247
2023-04-06T08:11:53.201Z,2989.9565217391305
2023-04-06T08:18:26.455Z,3100.685618729097
2023-04-06T08:24:46.057Z,3081.2608695652175
2023-04-06T08:31:05.673Z,3106.2240802675587
2023-04-06T08:37:25.557Z,3203.1973244147157
2023-04-06T08:43:45.422Z,3075.903010033445
2023-04-06T08:50:05.844Z,3128.247491638796
2023-04-06T09:01:09.916Z,3140.608695652174
2023-04-06T09:07:30.361Z,3067.073578595318
2023-04-06T09:14:05.852Z,3108.4414715719063
2023-04-06T09:20:25.779Z,3086.1471571906354
2023-04-06T09:30:59.723Z,3158.257525083612
2023-04-06T09:49:42.693Z,3246.561872909699
2023-04-06T09:56:02.693Z,3204.010033444816
2023-04-06T10:02:22.589Z,3097.896321070234
2023-04-06T10:08:42.097Z,3140.9498327759197
2023-04-06T10:19:25.636Z,3188.408026755853
2023-04-06T10:25:44.650Z,3370.3946488294314
2023-04-06T10:32:35.387Z,3330.7725752508363
2023-04-06T10:43:57.560Z,3316.3946488294314
2023-04-06T10:50:17.204Z,3352.7859531772574
2023-04-06T10:56:37.256Z,3342.872909698997
2023-04-06T11:02:57.113Z,3386.9397993311036
2023-04-06T11:09:16.905Z,3354.511705685619
2023-04-06T11:15:38.948Z,3208.8060200668897
2023-04-06T11:23:19.886Z,3112.535117056856
2023-04-06T11:29:39.798Z,3099.551839464883
2023-04-06T11:39:24.358Z,3067.0133779264215
2023-04-06T11:47:49.556Z,2801.3177257525085
2023-04-06T11:54:09.842Z,2733.742474916388
2023-04-06T12:00:30.227Z,2730.2709030100336
2023-04-06T12:09:23.275Z,2701.926421404682
2023-04-06T12:15:43.094Z,2697.4113712374583
2023-04-06T12:27:46.623Z,2633.4983277591973
2023-04-06T12:34:06.932Z,2565.4113712374583
2023-04-06T12:40:27.014Z,2645.438127090301
2023-04-06T12:46:47.331Z,2665.183946488294
2023-04-06T13:01:52.918Z,2713.665551839465
2023-04-06T13:14:27.769Z,2620.2140468227426
2023-04-06T13:20:47.625Z,2627.3478260869565
2023-04-06T13:33:04.303Z,2675.7491638795987
2023-04-06T13:39:24.133Z,2600.3377926421404
2023-04-06T13:45:44.076Z,2530.886287625418
2023-04-06T13:52:04.622Z,2568.71237458194
2023-04-06T13:58:24.475Z,2805.6421404682274
2023-04-06T14:08:33.250Z,2769.6120401337794
2023-04-06T14:17:48.433Z,2602.7859531772574
2023-04-06T14:26:55.431Z,2507.0267558528426
2023-04-06T14:33:52.856Z,2487.2207357859534
2023-04-06T14:40:13.219Z,2532.8026755852843
2023-04-06T14:46:32.710Z,2481.76254180602
2023-04-06T14:52:52.457Z,2607.3110367892978
2023-04-06T14:59:15.546Z,2521.535117056856
2023-04-06T15:11:55.269Z,2600.6688963210704
2023-04-06T15:18:15.383Z,2609.648829431438
2023-04-06T15:24:35.181Z,2666.9096989966556
2023-04-06T15:38:50.313Z,2903.799331103679
2023-04-06T15:45:11.795Z,2954.046822742475
2023-04-06T16:00:57.103Z,2850.933110367893
2023-04-06T16:07:17.010Z,2946.521739130435
2023-04-06T16:18:18.189Z,2953.9163879598664
2023-04-06T16:29:00.932Z,2975.7792642140466
2023-04-06T16:39:19.609Z,3054.511705685619
2023-04-06T16:46:53.006Z,3067.705685618729
2023-04-06T16:56:25.757Z,3053.989966555184
2023-04-06T17:02:45.622Z,3079.705685618729
2023-04-06T17:09:05.724Z,3400.7959866220735
2023-04-06T17:15:25.028Z,3140.458193979933
2023-04-06T17:25:38.932Z,3234.321070234114
2023-04-06T17:31:58.026Z,3179.247491638796
2023-04-06T17:40:22.068Z,3062.257525083612
2023-04-06T17:46:41.891Z,2896.9163879598664
2023-04-06T17:53:03.088Z,2969.3879598662206
2023-04-06T18:08:53.495Z,3104.678929765886
2023-04-06T18:19:41.584Z,3204.6120401337794
2023-04-06T18:37:14.510Z,3207.160535117057
2023-04-06T18:44:07.412Z,3080.648829431438
2023-04-06T18:51:00.225Z,3084.4113712374583
2023-04-06T19:10:40.088Z,3497.207357859532
2023-04-06T19:16:57.628Z,3140.849498327759
2023-04-06T19:23:16.786Z,3056.9197324414718
2023-04-06T19:34:39.783Z,3149.769230769231
2023-04-06T19:40:58.359Z,3055.515050167224
2023-04-06T19:47:18.528Z,3025.09364548495
2023-04-06T19:53:36.950Z,3032.6989966555184
2023-04-06T19:59:54.293Z,2928.120401337793
2023-04-06T20:06:12.730Z,2828.6588628762543
2023-04-06T20:13:53.888Z,2766.6220735785955
2023-04-06T20:41:35.391Z,2762.3979933110368
2023-04-06T20:53:56.136Z,2878.6053511705686
2023-04-06T21:01:11.006Z,2979.5016722408027
2023-04-06T21:07:29.281Z,2977.123745819398
2023-04-06T21:13:49.353Z,2947.494983277592
2023-04-06T21:20:08.305Z,2940.4515050167224
2023-04-06T21:26:26.323Z,2988.71237458194
2023-04-06T21:36:27.345Z,3299.7391304347825
2023-04-06T21:42:46.664Z,3037.0434782608695
2023-04-06T22:00:05.825Z,3158.799331103679
2023-04-06T22:06:24.281Z,3212.5384615384614
2023-04-06T22:12:42.349Z,3134.488294314381
2023-04-06T22:18:59.938Z,3266.066889632107
2023-04-06T22:25:18.496Z,3176.0066889632108
2023-04-06T22:33:31.883Z,3226.0334448160534
2023-04-06T22:39:51.253Z,3307.85618729097
2023-04-06T22:48:07.300Z,3359.628762541806
2023-04-06T22:58:03.415Z,3372.2909698996655
2023-04-06T23:04:22.133Z,3477.150501672241
2023-04-06T23:10:40.815Z,3470.819397993311
2023-04-06T23:18:39.967Z,3473.809364548495
2023-04-06T23:30:36.208Z,3502.3745819397996
2023-04-06T23:36:54.483Z,3516.1103678929767
2023-04-06T23:43:16.301Z,3598.57525083612
2023-04-06T23:55:07.488Z,3985.846153846154
